createdAt,value
2022-10-03T00:00:51.483Z,11.38
2022-10-03T00:04:56.946Z,11.39
2022-10-03T00:08:47.418Z,11.54
2022-10-03T00:12:49.628Z,11.80
2022-10-03T00:16:42.924Z,11.71
2022-10-03T00:20:32.653Z,11.86
2022-10-03T00:24:29.250Z,11.92
2022-10-03T00:28:22.698Z,11.95
2022-10-03T00:32:25.522Z,12.05
2022-10-03T00:36:29.424Z,12.15
2022-10-03T00:40:19.689Z,12.21
2022-10-03T00:44:19.097Z,12.27
2022-10-03T00:48:03.089Z,12.37
2022-10-03T00:51:50.508Z,12.39
2022-10-03T00:55:36.716Z,12.50
2022-10-03T00:59:37.784Z,12.48
2022-10-03T01:03:31.505Z,12.45
2022-10-03T01:07:20.377Z,12.55
2022-10-03T01:11:17.010Z,12.57
2022-10-03T01:15:16.568Z,12.74
2022-10-03T01:19:09.899Z,12.74
2022-10-03T01:22:59.117Z,12.88
2022-10-03T01:26:55.253Z,12.81
2022-10-03T01:30:47.053Z,12.92
2022-10-03T01:34:37.699Z,12.93
2022-10-03T01:38:41.928Z,12.98
2022-10-03T01:42:38.246Z,12.96
2022-10-03T01:46:34.717Z,13.02
2022-10-03T01:50:31.182Z,12.96
2022-10-03T01:54:33.833Z,12.99
2022-10-03T01:58:45.428Z,12.96
2022-10-03T02:02:38.336Z,12.94
2022-10-03T02:06:35.143Z,12.93
2022-10-03T02:10:34.317Z,12.86
2022-10-03T02:14:52.175Z,12.88
2022-10-03T02:18:51.855Z,13.00
2022-10-03T02:22:45.213Z,12.97
2022-10-03T02:26:33.866Z,12.88
2022-10-03T02:30:42.327Z,12.86
2022-10-03T02:34:59.878Z,12.75
2022-10-03T02:38:46.008Z,12.76
2022-10-03T02:42:33.422Z,12.82
2022-10-03T02:46:38.945Z,12.83
2022-10-03T02:50:25.190Z,12.92
2022-10-03T02:54:14.012Z,12.96
2022-10-03T02:58:19.695Z,12.95
2022-10-03T03:02:23.580Z,12.96
2022-10-03T03:06:21.704Z,12.99
2022-10-03T03:10:33.409Z,12.93
2022-10-03T03:14:32.885Z,13.03
2022-10-03T03:18:35.951Z,13.05
2022-10-03T03:22:38.165Z,12.96
2022-10-03T03:26:46.762Z,12.98
2022-10-03T03:30:34.507Z,12.98
2022-10-03T03:34:33.784Z,13.04
2022-10-03T03:38:28.769Z,13.04
2022-10-03T03:42:37.381Z,13.07
2022-10-03T03:46:42.861Z,13.05
2022-10-03T03:50:39.574Z,13.05
2022-10-03T03:54:29.877Z,13.15
2022-10-03T03:58:22.376Z,13.29
2022-10-03T04:02:16.760Z,13.25
2022-10-03T04:06:19.450Z,13.25
2022-10-03T04:10:09.851Z,13.17
2022-10-03T04:13:59.794Z,13.16
2022-10-03T04:18:06.859Z,13.34
2022-10-03T04:22:06.532Z,13.42
2022-10-03T04:26:05.927Z,13.43
2022-10-03T04:29:55.905Z,13.45
2022-10-03T04:33:56.947Z,13.42
2022-10-03T04:37:46.169Z,13.36
2022-10-03T04:41:33.989Z,13.37
2022-10-03T04:45:05.892Z,13.32
2022-10-03T04:48:56.920Z,13.40
2022-10-03T04:52:41.307Z,13.37
2022-10-03T04:56:04.891Z,13.34
2022-10-03T04:59:58.080Z,13.36
2022-10-03T05:03:45.159Z,13.29
2022-10-03T05:07:47.809Z,13.11
2022-10-03T05:11:38.226Z,13.02
2022-10-03T05:15:32.391Z,12.95
2022-10-03T05:19:29.332Z,12.84
2022-10-03T05:23:19.512Z,12.85
2022-10-03T05:27:10.273Z,12.80
2022-10-03T05:31:06.920Z,12.81
2022-10-03T05:34:57.516Z,12.75
2022-10-03T05:38:52.527Z,12.77
2022-10-03T05:42:39.992Z,12.73
2022-10-03T05:46:27.603Z,12.74
2022-10-03T05:50:33.549Z,12.67
2022-10-03T05:54:31.498Z,12.72
2022-10-03T05:58:23.304Z,12.70
2022-10-03T06:02:15.450Z,12.74
2022-10-03T06:06:18.114Z,12.74
2022-10-03T06:10:27.070Z,12.78
2022-10-03T06:14:14.840Z,12.67
2022-10-03T06:18:04.798Z,12.91
2022-10-03T06:21:50.812Z,13.07
2022-10-03T06:25:54.715Z,13.15
2022-10-03T06:30:01.335Z,13.17
2022-10-03T06:33:46.885Z,13.18
2022-10-03T06:37:55.705Z,13.40
2022-10-03T06:41:51.537Z,13.49
2022-10-03T06:45:51.509Z,13.54
2022-10-03T06:49:40.214Z,13.57
2022-10-03T06:53:37.268Z,13.94
2022-10-03T06:57:43.732Z,13.83
2022-10-03T07:01:30.001Z,13.80
2022-10-03T07:05:40.002Z,13.98
2022-10-03T07:09:42.695Z,13.85
2022-10-03T07:13:37.644Z,13.61
2022-10-03T07:17:30.788Z,13.87
2022-10-03T07:21:31.710Z,13.80
2022-10-03T07:25:43.258Z,13.91
2022-10-03T07:29:55.740Z,14.11
2022-10-03T07:33:53.264Z,14.10
2022-10-03T07:37:40.371Z,14.36
2022-10-03T07:41:42.856Z,14.56
2022-10-03T07:45:39.496Z,14.71
2022-10-03T07:49:25.146Z,14.30
2022-10-03T07:53:09.760Z,14.26
2022-10-03T07:56:58.575Z,14.07
2022-10-03T08:00:52.181Z,14.11
2022-10-03T08:04:48.767Z,14.21
2022-10-03T08:08:51.107Z,14.20
2022-10-03T08:12:30.466Z,14.21
2022-10-03T08:16:28.081Z,14.30
2022-10-03T08:20:18.770Z,14.13
2022-10-03T08:24:33.787Z,14.21
2022-10-03T08:28:21.133Z,14.31
2022-10-03T08:32:16.233Z,14.49
2022-10-03T08:36:09.331Z,14.73
2022-10-03T08:40:02.579Z,14.85
2022-10-03T08:43:59.271Z,15.05
2022-10-03T08:48:02.172Z,15.09
2022-10-03T08:51:54.144Z,15.48
2022-10-03T08:55:38.375Z,15.49
2022-10-03T08:59:41.174Z,15.73
2022-10-03T09:03:53.355Z,15.65
2022-10-03T09:07:46.788Z,15.65
2022-10-03T09:11:40.125Z,15.79
2022-10-03T09:15:33.752Z,15.89
2022-10-03T09:19:39.263Z,15.86
2022-10-03T09:23:50.999Z,15.70
2022-10-03T09:27:50.775Z,15.70
2022-10-03T09:31:44.451Z,15.62
2022-10-03T09:35:48.892Z,15.65
2022-10-03T09:39:38.407Z,15.67
2022-10-03T09:43:38.166Z,15.71
2022-10-03T09:47:30.489Z,16.00
2022-10-03T09:51:30.222Z,16.04
2022-10-03T09:55:16.856Z,15.83
2022-10-03T09:59:04.957Z,15.86
2022-10-03T10:02:55.542Z,15.84
2022-10-03T10:07:10.869Z,16.03
2022-10-03T10:11:06.256Z,15.99
2022-10-03T10:15:18.538Z,16.21
2022-10-03T10:19:09.896Z,16.36
2022-10-03T10:22:58.753Z,16.53
2022-10-03T10:27:11.482Z,17.01
2022-10-03T10:31:02.225Z,16.78
2022-10-03T10:35:11.510Z,16.54
2022-10-03T10:39:11.053Z,16.34
2022-10-03T10:42:47.590Z,16.01
2022-10-03T10:46:50.584Z,15.00
2022-10-03T10:50:48.245Z,18.91
2022-10-03T10:54:45.590Z,18.37
2022-10-03T10:58:33.015Z,18.04
2022-10-03T11:02:24.153Z,17.30
2022-10-03T11:06:09.178Z,16.82
2022-10-03T11:10:01.604Z,16.95
2022-10-03T11:13:50.167Z,16.62
2022-10-03T11:17:44.609Z,16.26
2022-10-03T11:21:30.795Z,16.06
2022-10-03T11:25:32.060Z,16.56
2022-10-03T11:29:47.037Z,16.31
2022-10-03T11:33:55.120Z,16.33
2022-10-03T11:37:54.112Z,16.32
2022-10-03T11:41:46.755Z,16.51
2022-10-03T11:45:47.794Z,16.78
2022-10-03T11:49:51.202Z,16.71
2022-10-03T11:53:41.761Z,16.28
2022-10-03T11:57:32.181Z,16.48
2022-10-03T12:01:31.885Z,16.72
2022-10-03T12:05:26.113Z,17.25
2022-10-03T12:09:26.373Z,16.95
2022-10-03T12:13:18.987Z,16.81
2022-10-03T12:17:09.984Z,16.98
2022-10-03T12:21:31.711Z,17.35
2022-10-03T12:25:19.603Z,16.96
2022-10-03T12:29:16.832Z,17.14
2022-10-03T12:33:36.048Z,17.09
2022-10-03T12:37:34.356Z,17.07
2022-10-03T12:41:24.829Z,16.89
2022-10-03T12:45:37.156Z,17.20
2022-10-03T12:49:30.556Z,17.68
2022-10-03T12:53:26.599Z,18.43
2022-10-03T12:57:20.169Z,18.37
2022-10-03T13:01:16.514Z,18.08
2022-10-03T13:05:15.227Z,18.05
2022-10-03T13:09:22.328Z,18.10
2022-10-03T13:13:12.808Z,17.96
2022-10-03T13:17:03.196Z,17.80
2022-10-03T13:20:56.265Z,17.69
2022-10-03T13:25:07.527Z,17.71
2022-10-03T13:29:12.965Z,17.53
2022-10-03T13:32:26.399Z,17.05
2022-10-03T13:36:20.685Z,17.23
2022-10-03T13:39:46.829Z,17.21
2022-10-03T13:43:14.336Z,17.09
2022-10-03T13:47:02.078Z,17.35
2022-10-03T13:50:57.373Z,17.28
2022-10-03T13:54:48.605Z,17.68
2022-10-03T13:58:45.827Z,17.71
2022-10-03T14:02:51.792Z,17.50
2022-10-03T14:06:34.034Z,17.49
2022-10-03T14:10:37.496Z,17.75
2022-10-03T14:14:25.335Z,17.47
2022-10-03T14:18:16.569Z,17.36
2022-10-03T14:22:09.850Z,17.26
2022-10-03T14:26:03.262Z,17.13
2022-10-03T14:29:48.481Z,17.00
2022-10-03T14:33:41.747Z,16.71
2022-10-03T14:37:54.718Z,16.75
2022-10-03T14:41:43.360Z,16.69
2022-10-03T14:45:40.117Z,16.62
2022-10-03T14:49:57.974Z,16.78
2022-10-03T14:53:44.037Z,16.86
2022-10-03T14:57:43.634Z,17.06
2022-10-03T15:01:42.517Z,17.76
2022-10-03T15:05:33.277Z,17.64
2022-10-03T15:09:13.708Z,17.33
2022-10-03T15:12:48.829Z,17.44
2022-10-03T15:16:37.331Z,18.12
2022-10-03T15:20:10.077Z,17.55
2022-10-03T15:23:57.798Z,17.81
2022-10-03T15:27:39.284Z,17.87
2022-10-03T15:31:19.923Z,17.87
2022-10-03T15:35:10.685Z,17.26
2022-10-03T15:39:07.827Z,16.96
2022-10-03T15:42:44.145Z,16.92
2022-10-03T15:46:24.288Z,17.27
2022-10-03T15:50:06.635Z,17.60
2022-10-03T15:53:37.221Z,17.55
2022-10-03T15:57:25.956Z,17.78
2022-10-03T16:01:19.866Z,17.23
2022-10-03T16:05:20.061Z,16.94
2022-10-03T16:08:58.142Z,17.15
2022-10-03T16:12:57.217Z,16.82
2022-10-03T16:16:45.250Z,16.71
2022-10-03T16:20:32.575Z,16.75
2022-10-03T16:24:20.262Z,16.62
2022-10-03T16:28:07.812Z,16.78
2022-10-03T16:32:07.719Z,16.80
2022-10-03T16:36:04.450Z,16.54
2022-10-03T16:39:54.852Z,16.47
2022-10-03T16:43:42.951Z,16.52
2022-10-03T16:47:33.998Z,16.30
2022-10-03T16:51:24.655Z,16.23
2022-10-03T16:55:01.263Z,16.17
2022-10-03T16:58:49.585Z,16.35
2022-10-03T17:02:37.791Z,16.79
2022-10-03T17:06:26.885Z,16.75
2022-10-03T17:10:17.690Z,16.45
2022-10-03T17:13:54.525Z,16.16
2022-10-03T17:17:43.614Z,15.82
2022-10-03T17:20:48.330Z,15.54
2022-10-03T17:24:15.303Z,15.81
2022-10-03T17:27:37.801Z,15.36
2022-10-03T17:31:11.091Z,15.23
2022-10-03T17:34:59.105Z,15.78
2022-10-03T17:38:58.438Z,15.17
2022-10-03T17:42:40.570Z,15.35
2022-10-03T17:46:32.341Z,14.96
2022-10-03T17:50:20.147Z,15.21
2022-10-03T17:54:02.607Z,15.41
2022-10-03T17:58:05.624Z,15.28
2022-10-03T18:02:02.431Z,15.01
2022-10-03T18:05:58.125Z,15.19
2022-10-03T18:09:48.760Z,15.06
2022-10-03T18:13:19.708Z,15.34
2022-10-03T18:17:06.602Z,15.13
2022-10-03T18:21:10.445Z,15.03
2022-10-03T18:24:49.272Z,15.09
2022-10-03T18:28:43.905Z,15.22
2022-10-03T18:32:01.001Z,15.19
2022-10-03T18:35:43.914Z,15.13
2022-10-03T18:39:13.550Z,14.94
2022-10-03T18:42:38.711Z,14.97
2022-10-03T18:46:26.682Z,14.98
2022-10-03T18:50:01.681Z,14.75
2022-10-03T18:54:15.606Z,14.59
2022-10-03T18:58:06.250Z,14.33
2022-10-03T19:02:01.443Z,14.23
2022-10-03T19:05:38.208Z,14.41
2022-10-03T19:09:32.385Z,14.50
2022-10-03T19:12:40.928Z,14.75
2022-10-03T19:16:28.990Z,15.00
2022-10-03T19:20:33.090Z,14.79
2022-10-03T19:24:39.928Z,14.71
2022-10-03T19:28:16.112Z,14.57
2022-10-03T19:32:05.466Z,14.53
2022-10-03T19:35:47.401Z,14.52
2022-10-03T19:39:30.474Z,14.49
2022-10-03T19:43:37.034Z,14.58
2022-10-03T19:47:37.367Z,14.64
2022-10-03T19:51:28.163Z,14.77
2022-10-03T19:55:28.166Z,14.79
2022-10-03T19:59:01.355Z,14.46
2022-10-03T20:02:41.911Z,14.65
2022-10-03T20:06:32.452Z,14.77
2022-10-03T20:10:20.164Z,14.46
2022-10-03T20:14:08.424Z,14.54
2022-10-03T20:18:03.824Z,14.46
2022-10-03T20:21:44.641Z,14.44
2022-10-03T20:25:22.488Z,14.45
2022-10-03T20:29:08.480Z,14.60
2022-10-03T20:32:59.449Z,14.50
2022-10-03T20:36:59.736Z,14.25
2022-10-03T20:40:42.668Z,14.14
2022-10-03T20:44:31.584Z,14.32
2022-10-03T20:48:17.386Z,14.30
2022-10-03T20:52:04.891Z,14.35
2022-10-03T20:55:52.392Z,14.50
2022-10-03T20:59:33.244Z,14.49
2022-10-03T21:03:29.572Z,14.45
2022-10-03T21:07:28.875Z,14.36
2022-10-03T21:11:28.043Z,14.39
2022-10-03T21:15:15.681Z,14.30
2022-10-03T21:19:03.479Z,14.44
2022-10-03T21:22:56.880Z,14.54
2022-10-03T21:26:37.134Z,14.00
2022-10-03T21:30:17.220Z,14.26
2022-10-03T21:34:10.611Z,14.20
2022-10-03T21:38:07.224Z,14.20
2022-10-03T21:41:47.614Z,14.09
2022-10-03T21:45:50.173Z,14.23
2022-10-03T21:49:45.686Z,14.36
2022-10-03T21:53:40.717Z,14.85
2022-10-03T21:57:37.284Z,14.82
2022-10-03T22:01:17.566Z,14.96
2022-10-03T22:05:09.718Z,14.99
2022-10-03T22:09:02.841Z,14.60
2022-10-03T22:12:50.262Z,14.75
2022-10-03T22:16:36.251Z,14.60
2022-10-03T22:20:19.180Z,14.29
2022-10-03T22:24:10.291Z,14.13
2022-10-03T22:28:21.837Z,14.33
2022-10-03T22:32:24.205Z,14.69
2022-10-03T22:36:32.707Z,14.75
2022-10-03T22:40:13.085Z,14.73
2022-10-03T22:43:53.302Z,14.58
2022-10-03T22:47:51.512Z,14.46
2022-10-03T22:51:23.158Z,14.35
2022-10-03T22:55:13.460Z,14.08
2022-10-03T22:58:44.551Z,14.05
2022-10-03T23:02:32.079Z,14.20
2022-10-03T23:06:37.423Z,14.05
2022-10-03T23:10:24.054Z,14.01
2022-10-03T23:14:20.330Z,13.79
2022-10-03T23:18:14.150Z,13.82
2022-10-03T23:22:01.581Z,13.87
2022-10-03T23:25:54.699Z,13.95
2022-10-03T23:29:50.994Z,14.10
2022-10-03T23:33:41.190Z,14.02
2022-10-03T23:37:31.249Z,14.01
2022-10-03T23:41:15.314Z,14.02
2022-10-03T23:45:06.978Z,14.07
2022-10-03T23:48:57.232Z,13.91
2022-10-03T23:52:44.788Z,13.94
2022-10-03T23:56:23.436Z,13.89
